sensor_id;sensor_type;location;lat;lon;timestamp;P1;durP1;ratioP1;P2;durP2;ratioP2
25479;SDS011;13393;49.378;8.686;2023-04-12T00:01:25;4.82;;;1.85;;
25479;SDS011;13393;49.378;8.686;2023-04-12T00:03:51;5.97;;;1.90;;
25479;SDS011;13393;49.378;8.686;2023-04-12T00:06:18;7.72;;;2.25;;
25479;SDS011;13393;49.378;8.686;2023-04-12T00:08:49;8.15;;;2.05;;
25479;SDS011;13393;49.378;8.686;2023-04-12T00:11:15;5.13;;;1.67;;
25479;SDS011;13393;49.378;8.686;2023-04-12T00:13:43;6.35;;;1.63;;
25479;SDS011;13393;49.378;8.686;2023-04-12T00:16:09;6.45;;;1.88;;
25479;SDS011;13393;49.378;8.686;2023-04-12T00:18:39;4.28;;;1.63;;
25479;SDS011;13393;49.378;8.686;2023-04-12T00:21:06;5.47;;;1.92;;
25479;SDS011;13393;49.378;8.686;2023-04-12T00:23:34;8.13;;;1.80;;
25479;SDS011;13393;49.378;8.686;2023-04-12T00:26:01;8.00;;;2.05;;
25479;SDS011;13393;49.378;8.686;2023-04-12T00:28:28;3.55;;;1.60;;
25479;SDS011;13393;49.378;8.686;2023-04-12T00:30:56;4.43;;;1.67;;
25479;SDS011;13393;49.378;8.686;2023-04-12T00:33:22;6.18;;;2.15;;
25479;SDS011;13393;49.378;8.686;2023-04-12T00:35:49;4.35;;;1.67;;
25479;SDS011;13393;49.378;8.686;2023-04-12T00:38:15;5.20;;;1.63;;
25479;SDS011;13393;49.378;8.686;2023-04-12T00:40:42;4.13;;;1.90;;
25479;SDS011;13393;49.378;8.686;2023-04-12T00:43:08;5.03;;;1.65;;
25479;SDS011;13393;49.378;8.686;2023-04-12T00:45:39;6.32;;;2.00;;
25479;SDS011;13393;49.378;8.686;2023-04-12T00:48:07;5.45;;;1.98;;
25479;SDS011;13393;49.378;8.686;2023-04-12T00:50:34;5.93;;;2.20;;
25479;SDS011;13393;49.378;8.686;2023-04-12T00:53:01;4.65;;;2.00;;
25479;SDS011;13393;49.378;8.686;2023-04-12T00:55:27;6.03;;;2.33;;
25479;SDS011;13393;49.378;8.686;2023-04-12T00:57:53;8.10;;;2.10;;
25479;SDS011;13393;49.378;8.686;2023-04-12T01:00:20;5.50;;;1.85;;
25479;SDS011;13393;49.378;8.686;2023-04-12T01:02:47;3.83;;;1.60;;
25479;SDS011;13393;49.378;8.686;2023-04-12T01:05:17;5.97;;;2.25;;
25479;SDS011;13393;49.378;8.686;2023-04-12T01:07:47;6.00;;;2.00;;
25479;SDS011;13393;49.378;8.686;2023-04-12T01:10:20;10.38;;;1.90;;
25479;SDS011;13393;49.378;8.686;2023-04-12T01:12:52;6.45;;;2.05;;
25479;SDS011;13393;49.378;8.686;2023-04-12T01:15:20;7.60;;;2.00;;
25479;SDS011;13393;49.378;8.686;2023-04-12T01:17:48;5.55;;;2.42;;
25479;SDS011;13393;49.378;8.686;2023-04-12T01:20:21;6.88;;;2.50;;
25479;SDS011;13393;49.378;8.686;2023-04-12T01:22:55;7.68;;;2.33;;
25479;SDS011;13393;49.378;8.686;2023-04-12T01:25:29;4.93;;;1.88;;
25479;SDS011;13393;49.378;8.686;2023-04-12T01:28:00;3.70;;;2.30;;
25479;SDS011;13393;49.378;8.686;2023-04-12T01:30:27;6.72;;;2.20;;
25479;SDS011;13393;49.378;8.686;2023-04-12T01:32:55;5.18;;;2.20;;
25479;SDS011;13393;49.378;8.686;2023-04-12T01:35:23;6.22;;;2.15;;
25479;SDS011;13393;49.378;8.686;2023-04-12T01:37:50;2.40;;;1.77;;
25479;SDS011;13393;49.378;8.686;2023-04-12T01:40:17;8.52;;;2.88;;
25479;SDS011;13393;49.378;8.686;2023-04-12T01:42:44;7.88;;;2.00;;
25479;SDS011;13393;49.378;8.686;2023-04-12T01:45:12;5.85;;;2.38;;
25479;SDS011;13393;49.378;8.686;2023-04-12T01:47:38;6.65;;;2.40;;
25479;SDS011;13393;49.378;8.686;2023-04-12T01:50:09;5.60;;;2.50;;
25479;SDS011;13393;49.378;8.686;2023-04-12T01:52:37;7.18;;;2.50;;
25479;SDS011;13393;49.378;8.686;2023-04-12T01:55:06;6.90;;;2.13;;
25479;SDS011;13393;49.378;8.686;2023-04-12T01:57:33;4.72;;;1.73;;
25479;SDS011;13393;49.378;8.686;2023-04-12T02:00:01;7.18;;;2.08;;
25479;SDS011;13393;49.378;8.686;2023-04-12T02:02:31;5.88;;;2.20;;
25479;SDS011;13393;49.378;8.686;2023-04-12T02:05:00;5.43;;;2.10;;
25479;SDS011;13393;49.378;8.686;2023-04-12T02:07:27;6.25;;;2.38;;
25479;SDS011;13393;49.378;8.686;2023-04-12T02:09:53;5.93;;;2.28;;
25479;SDS011;13393;49.378;8.686;2023-04-12T02:12:21;7.97;;;2.58;;
25479;SDS011;13393;49.378;8.686;2023-04-12T02:14:47;4.82;;;1.80;;
25479;SDS011;13393;49.378;8.686;2023-04-12T02:17:16;2.83;;;1.63;;
25479;SDS011;13393;49.378;8.686;2023-04-12T02:19:43;4.15;;;1.77;;
25479;SDS011;13393;49.378;8.686;2023-04-12T02:22:11;6.03;;;2.25;;
25479;SDS011;13393;49.378;8.686;2023-04-12T02:24:37;6.05;;;2.22;;
25479;SDS011;13393;49.378;8.686;2023-04-12T02:27:03;3.75;;;1.90;;
25479;SDS011;13393;49.378;8.686;2023-04-12T02:29:30;4.90;;;1.80;;
25479;SDS011;13393;49.378;8.686;2023-04-12T02:31:57;5.20;;;2.28;;
25479;SDS011;13393;49.378;8.686;2023-04-12T02:34:23;3.30;;;1.70;;
25479;SDS011;13393;49.378;8.686;2023-04-12T02:36:51;5.18;;;1.92;;
25479;SDS011;13393;49.378;8.686;2023-04-12T02:39:17;5.47;;;1.88;;
25479;SDS011;13393;49.378;8.686;2023-04-12T02:41:46;5.88;;;1.73;;
25479;SDS011;13393;49.378;8.686;2023-04-12T02:44:12;5.13;;;2.08;;
25479;SDS011;13393;49.378;8.686;2023-04-12T02:46:38;5.70;;;2.00;;
25479;SDS011;13393;49.378;8.686;2023-04-12T02:49:05;2.90;;;1.67;;
25479;SDS011;13393;49.378;8.686;2023-04-12T02:51:31;3.63;;;1.50;;
25479;SDS011;13393;49.378;8.686;2023-04-12T02:53:59;4.28;;;1.52;;
25479;SDS011;13393;49.378;8.686;2023-04-12T02:56:25;3.80;;;1.60;;
25479;SDS011;13393;49.378;8.686;2023-04-12T02:58:54;7.18;;;1.83;;
25479;SDS011;13393;49.378;8.686;2023-04-12T03:01:21;2.67;;;1.35;;
25479;SDS011;13393;49.378;8.686;2023-04-12T03:03:47;7.43;;;1.90;;
25479;SDS011;13393;49.378;8.686;2023-04-12T03:06:13;3.15;;;1.27;;
25479;SDS011;13393;49.378;8.686;2023-04-12T03:08:40;4.07;;;1.10;;
25479;SDS011;13393;49.378;8.686;2023-04-12T03:11:07;5.57;;;1.75;;
25479;SDS011;13393;49.378;8.686;2023-04-12T03:13:35;3.63;;;1.80;;
25479;SDS011;13393;49.378;8.686;2023-04-12T03:16:18;2.63;;;1.58;;
25479;SDS011;13393;49.378;8.686;2023-04-12T03:18:45;3.08;;;1.50;;
25479;SDS011;13393;49.378;8.686;2023-04-12T03:21:11;4.57;;;1.65;;
25479;SDS011;13393;49.378;8.686;2023-04-12T03:23:38;5.35;;;1.63;;
25479;SDS011;13393;49.378;8.686;2023-04-12T03:26:04;4.75;;;1.77;;
25479;SDS011;13393;49.378;8.686;2023-04-12T03:28:32;5.63;;;1.70;;
25479;SDS011;13393;49.378;8.686;2023-04-12T03:30:58;3.90;;;1.88;;
25479;SDS011;13393;49.378;8.686;2023-04-12T03:33:25;4.43;;;1.63;;
25479;SDS011;13393;49.378;8.686;2023-04-12T03:35:54;4.70;;;1.90;;
25479;SDS011;13393;49.378;8.686;2023-04-12T03:38:21;4.05;;;1.80;;
25479;SDS011;13393;49.378;8.686;2023-04-12T03:40:47;3.70;;;1.75;;
25479;SDS011;13393;49.378;8.686;2023-04-12T03:43:13;4.00;;;1.80;;
25479;SDS011;13393;49.378;8.686;2023-04-12T03:45:41;3.35;;;1.63;;
25479;SDS011;13393;49.378;8.686;2023-04-12T03:48:07;2.83;;;1.48;;
25479;SDS011;13393;49.378;8.686;2023-04-12T03:50:35;3.42;;;1.45;;
25479;SDS011;13393;49.378;8.686;2023-04-12T03:53:08;3.22;;;1.48;;
25479;SDS011;13393;49.378;8.686;2023-04-12T03:55:34;3.72;;;1.70;;
25479;SDS011;13393;49.378;8.686;2023-04-12T03:58:01;5.45;;;2.03;;
25479;SDS011;13393;49.378;8.686;2023-04-12T04:00:28;5.72;;;2.33;;
25479;SDS011;13393;49.378;8.686;2023-04-12T04:02:57;3.20;;;1.75;;
25479;SDS011;13393;49.378;8.686;2023-04-12T04:05:27;2.85;;;1.70;;
25479;SDS011;13393;49.378;8.686;2023-04-12T04:07:54;2.90;;;1.80;;
25479;SDS011;13393;49.378;8.686;2023-04-12T04:10:24;4.32;;;2.10;;
25479;SDS011;13393;49.378;8.686;2023-04-12T04:12:50;4.68;;;1.60;;
25479;SDS011;13393;49.378;8.686;2023-04-12T04:15:17;2.05;;;1.63;;
25479;SDS011;13393;49.378;8.686;2023-04-12T04:17:43;2.25;;;1.58;;
25479;SDS011;13393;49.378;8.686;2023-04-12T04:20:12;2.30;;;1.70;;
25479;SDS011;13393;49.378;8.686;2023-04-12T04:22:39;2.92;;;1.60;;
25479;SDS011;13393;49.378;8.686;2023-04-12T04:25:06;2.90;;;1.80;;
25479;SDS011;13393;49.378;8.686;2023-04-12T04:27:33;1.75;;;1.65;;
25479;SDS011;13393;49.378;8.686;2023-04-12T04:30:02;4.15;;;1.95;;
25479;SDS011;13393;49.378;8.686;2023-04-12T04:32:29;3.45;;;1.80;;
25479;SDS011;13393;49.378;8.686;2023-04-12T04:34:55;4.38;;;1.70;;
25479;SDS011;13393;49.378;8.686;2023-04-12T04:37:25;3.35;;;1.50;;
25479;SDS011;13393;49.378;8.686;2023-04-12T04:39:51;2.28;;;1.65;;
25479;SDS011;13393;49.378;8.686;2023-04-12T04:42:17;3.15;;;1.77;;
25479;SDS011;13393;49.378;8.686;2023-04-12T04:44:45;4.35;;;1.98;;
25479;SDS011;13393;49.378;8.686;2023-04-12T04:47:11;4.13;;;2.33;;
25479;SDS011;13393;49.378;8.686;2023-04-12T04:49:38;2.30;;;1.80;;
25479;SDS011;13393;49.378;8.686;2023-04-12T04:52:05;2.60;;;1.60;;
25479;SDS011;13393;49.378;8.686;2023-04-12T04:54:34;2.10;;;1.60;;
25479;SDS011;13393;49.378;8.686;2023-04-12T04:57:00;2.95;;;1.70;;
25479;SDS011;13393;49.378;8.686;2023-04-12T04:59:27;4.75;;;2.20;;
25479;SDS011;13393;49.378;8.686;2023-04-12T05:01:53;2.55;;;1.77;;
25479;SDS011;13393;49.378;8.686;2023-04-12T05:04:19;3.65;;;1.67;;
25479;SDS011;13393;49.378;8.686;2023-04-12T05:06:46;3.63;;;2.03;;
25479;SDS011;13393;49.378;8.686;2023-04-12T05:09:12;2.85;;;1.85;;
25479;SDS011;13393;49.378;8.686;2023-04-12T05:11:40;5.55;;;2.50;;
25479;SDS011;13393;49.378;8.686;2023-04-12T05:14:06;3.72;;;2.05;;
25479;SDS011;13393;49.378;8.686;2023-04-12T05:16:32;4.30;;;2.00;;
25479;SDS011;13393;49.378;8.686;2023-04-12T05:18:59;4.68;;;2.03;;
25479;SDS011;13393;49.378;8.686;2023-04-12T05:21:25;8.60;;;2.10;;
25479;SDS011;13393;49.378;8.686;2023-04-12T05:23:52;3.67;;;1.90;;
25479;SDS011;13393;49.378;8.686;2023-04-12T05:26:19;4.15;;;2.22;;
25479;SDS011;13393;49.378;8.686;2023-04-12T05:28:47;3.25;;;1.80;;
25479;SDS011;13393;49.378;8.686;2023-04-12T05:31:14;4.30;;;2.30;;
25479;SDS011;13393;49.378;8.686;2023-04-12T05:33:40;3.55;;;2.53;;
25479;SDS011;13393;49.378;8.686;2023-04-12T05:36:06;2.97;;;2.10;;
25479;SDS011;13393;49.378;8.686;2023-04-12T05:38:33;3.63;;;2.33;;
25479;SDS011;13393;49.378;8.686;2023-04-12T05:40:59;6.40;;;2.72;;
25479;SDS011;13393;49.378;8.686;2023-04-12T05:43:28;4.88;;;2.65;;
25479;SDS011;13393;49.378;8.686;2023-04-12T05:45:55;3.92;;;2.78;;
25479;SDS011;13393;49.378;8.686;2023-04-12T05:48:22;4.28;;;2.30;;
25479;SDS011;13393;49.378;8.686;2023-04-12T05:50:51;4.28;;;2.30;;
25479;SDS011;13393;49.378;8.686;2023-04-12T05:53:18;6.00;;;2.53;;
25479;SDS011;13393;49.378;8.686;2023-04-12T05:55:45;3.10;;;2.60;;
25479;SDS011;13393;49.378;8.686;2023-04-12T05:58:11;4.72;;;2.60;;
25479;SDS011;13393;49.378;8.686;2023-04-12T06:00:37;4.93;;;2.50;;
25479;SDS011;13393;49.378;8.686;2023-04-12T06:03:07;3.63;;;2.67;;
25479;SDS011;13393;49.378;8.686;2023-04-12T06:05:34;6.00;;;2.80;;
25479;SDS011;13393;49.378;8.686;2023-04-12T06:08:00;5.15;;;2.33;;
25479;SDS011;13393;49.378;8.686;2023-04-12T06:10:27;4.05;;;2.45;;
25479;SDS011;13393;49.378;8.686;2023-04-12T06:12:53;5.63;;;2.85;;
25479;SDS011;13393;49.378;8.686;2023-04-12T06:15:19;5.35;;;3.05;;
25479;SDS011;13393;49.378;8.686;2023-04-12T06:17:46;3.80;;;2.60;;
25479;SDS011;13393;49.378;8.686;2023-04-12T06:20:13;6.82;;;2.60;;
25479;SDS011;13393;49.378;8.686;2023-04-12T06:22:40;4.20;;;2.80;;
25479;SDS011;13393;49.378;8.686;2023-04-12T06:25:06;6.78;;;2.97;;
25479;SDS011;13393;49.378;8.686;2023-04-12T06:27:33;3.45;;;2.67;;
25479;SDS011;13393;49.378;8.686;2023-04-12T06:29:59;5.72;;;2.92;;
25479;SDS011;13393;49.378;8.686;2023-04-12T06:32:25;8.27;;;3.05;;
25479;SDS011;13393;49.378;8.686;2023-04-12T06:34:52;4.95;;;2.80;;
25479;SDS011;13393;49.378;8.686;2023-04-12T06:37:20;3.70;;;2.50;;
25479;SDS011;13393;49.378;8.686;2023-04-12T06:39:46;4.03;;;2.10;;
25479;SDS011;13393;49.378;8.686;2023-04-12T06:42:12;5.10;;;3.22;;
25479;SDS011;13393;49.378;8.686;2023-04-12T06:44:38;5.13;;;2.25;;
25479;SDS011;13393;49.378;8.686;2023-04-12T06:47:05;4.90;;;2.65;;
25479;SDS011;13393;49.378;8.686;2023-04-12T06:49:31;3.75;;;2.40;;
25479;SDS011;13393;49.378;8.686;2023-04-12T06:51:58;4.07;;;2.20;;
25479;SDS011;13393;49.378;8.686;2023-04-12T06:54:25;5.03;;;2.60;;
25479;SDS011;13393;49.378;8.686;2023-04-12T06:56:52;3.75;;;2.10;;
25479;SDS011;13393;49.378;8.686;2023-04-12T06:59:18;3.97;;;2.40;;
25479;SDS011;13393;49.378;8.686;2023-04-12T07:01:44;4.40;;;2.15;;
25479;SDS011;13393;49.378;8.686;2023-04-12T07:04:10;4.47;;;2.30;;
25479;SDS011;13393;49.378;8.686;2023-04-12T07:06:37;4.90;;;2.30;;
25479;SDS011;13393;49.378;8.686;2023-04-12T07:09:03;2.88;;;2.00;;
25479;SDS011;13393;49.378;8.686;2023-04-12T07:11:31;3.90;;;1.95;;
25479;SDS011;13393;49.378;8.686;2023-04-12T07:13:57;2.75;;;1.85;;
25479;SDS011;13393;49.378;8.686;2023-04-12T07:16:24;4.18;;;2.00;;
25479;SDS011;13393;49.378;8.686;2023-04-12T07:18:50;3.15;;;1.80;;
25479;SDS011;13393;49.378;8.686;2023-04-12T07:21:17;3.08;;;1.85;;
25479;SDS011;13393;49.378;8.686;2023-04-12T07:23:43;2.58;;;1.80;;
25479;SDS011;13393;49.378;8.686;2023-04-12T07:26:10;2.70;;;1.90;;
25479;SDS011;13393;49.378;8.686;2023-04-12T07:28:38;4.35;;;2.20;;
25479;SDS011;13393;49.378;8.686;2023-04-12T07:31:04;3.83;;;1.50;;
25479;SDS011;13393;49.378;8.686;2023-04-12T07:33:31;2.92;;;1.60;;
25479;SDS011;13393;49.378;8.686;2023-04-12T07:35:59;3.72;;;1.52;;
25479;SDS011;13393;49.378;8.686;2023-04-12T07:38:26;4.07;;;1.80;;
25479;SDS011;13393;49.378;8.686;2023-04-12T07:40:53;2.75;;;1.63;;
25479;SDS011;13393;49.378;8.686;2023-04-12T07:43:19;4.03;;;1.42;;
25479;SDS011;13393;49.378;8.686;2023-04-12T07:45:47;2.97;;;1.55;;
25479;SDS011;13393;49.378;8.686;2023-04-12T07:48:13;3.22;;;1.55;;
25479;SDS011;13393;49.378;8.686;2023-04-12T07:50:40;4.53;;;1.92;;
25479;SDS011;13393;49.378;8.686;2023-04-12T07:53:18;1.58;;;1.48;;
25479;SDS011;13393;49.378;8.686;2023-04-12T07:55:45;3.90;;;1.45;;
25479;SDS011;13393;49.378;8.686;2023-04-12T07:58:12;2.22;;;1.73;;
25479;SDS011;13393;49.378;8.686;2023-04-12T08:00:38;4.15;;;1.80;;
25479;SDS011;13393;49.378;8.686;2023-04-12T08:03:06;5.15;;;1.83;;
25479;SDS011;13393;49.378;8.686;2023-04-12T08:05:32;8.13;;;1.83;;
25479;SDS011;13393;49.378;8.686;2023-04-12T08:07:59;4.28;;;2.25;;
25479;SDS011;13393;49.378;8.686;2023-04-12T08:10:25;2.45;;;1.70;;
25479;SDS011;13393;49.378;8.686;2023-04-12T08:12:51;3.08;;;1.60;;
25479;SDS011;13393;49.378;8.686;2023-04-12T08:15:18;3.47;;;1.40;;
25479;SDS011;13393;49.378;8.686;2023-04-12T08:17:44;3.88;;;1.80;;
25479;SDS011;13393;49.378;8.686;2023-04-12T08:20:13;3.75;;;2.05;;
25479;SDS011;13393;49.378;8.686;2023-04-12T08:22:40;5.18;;;2.67;;
25479;SDS011;13393;49.378;8.686;2023-04-12T08:25:07;2.22;;;1.60;;
25479;SDS011;13393;49.378;8.686;2023-04-12T08:27:34;6.25;;;2.10;;
25479;SDS011;13393;49.378;8.686;2023-04-12T08:30:01;5.22;;;1.83;;
25479;SDS011;13393;49.378;8.686;2023-04-12T08:32:27;2.72;;;1.60;;
25479;SDS011;13393;49.378;8.686;2023-04-12T08:34:53;3.22;;;1.60;;
25479;SDS011;13393;49.378;8.686;2023-04-12T08:37:21;4.00;;;1.73;;
25479;SDS011;13393;49.378;8.686;2023-04-12T08:39:48;4.88;;;1.90;;
25479;SDS011;13393;49.378;8.686;2023-04-12T08:42:14;5.75;;;1.70;;
25479;SDS011;13393;49.378;8.686;2023-04-12T08:44:41;2.55;;;1.77;;
25479;SDS011;13393;49.378;8.686;2023-04-12T08:47:08;4.10;;;1.80;;
25479;SDS011;13393;49.378;8.686;2023-04-12T08:49:34;2.58;;;2.08;;
25479;SDS011;13393;49.378;8.686;2023-04-12T08:52:02;3.72;;;1.92;;
25479;SDS011;13393;49.378;8.686;2023-04-12T08:54:31;4.90;;;1.75;;
25479;SDS011;13393;49.378;8.686;2023-04-12T08:56:58;2.75;;;1.70;;
25479;SDS011;13393;49.378;8.686;2023-04-12T08:59:26;5.68;;;2.13;;
25479;SDS011;13393;49.378;8.686;2023-04-12T09:01:52;2.28;;;1.40;;
25479;SDS011;13393;49.378;8.686;2023-04-12T09:04:19;3.53;;;1.98;;
25479;SDS011;13393;49.378;8.686;2023-04-12T09:06:45;2.65;;;1.70;;
25479;SDS011;13393;49.378;8.686;2023-04-12T09:09:12;3.00;;;1.80;;
25479;SDS011;13393;49.378;8.686;2023-04-12T09:11:40;2.85;;;1.63;;
25479;SDS011;13393;49.378;8.686;2023-04-12T09:14:19;6.18;;;1.85;;
25479;SDS011;13393;49.378;8.686;2023-04-12T09:16:45;3.30;;;1.70;;
25479;SDS011;13393;49.378;8.686;2023-04-12T09:19:11;4.65;;;2.13;;
25479;SDS011;13393;49.378;8.686;2023-04-12T09:21:50;5.55;;;1.70;;
25479;SDS011;13393;49.378;8.686;2023-04-12T09:24:16;4.80;;;2.10;;
25479;SDS011;13393;49.378;8.686;2023-04-12T09:26:44;3.10;;;1.42;;
25479;SDS011;13393;49.378;8.686;2023-04-12T09:29:20;3.63;;;2.03;;
25479;SDS011;13393;49.378;8.686;2023-04-12T09:31:53;3.38;;;1.90;;
25479;SDS011;13393;49.378;8.686;2023-04-12T09:34:19;2.58;;;1.80;;
25479;SDS011;13393;49.378;8.686;2023-04-12T09:36:46;3.70;;;1.90;;
25479;SDS011;13393;49.378;8.686;2023-04-12T09:39:12;5.68;;;1.98;;
25479;SDS011;13393;49.378;8.686;2023-04-12T09:41:38;5.32;;;1.98;;
25479;SDS011;13393;49.378;8.686;2023-04-12T09:44:06;4.90;;;2.20;;
25479;SDS011;13393;49.378;8.686;2023-04-12T09:46:32;5.18;;;1.98;;
25479;SDS011;13393;49.378;8.686;2023-04-12T09:48:59;2.00;;;1.80;;
25479;SDS011;13393;49.378;8.686;2023-04-12T09:51:28;3.50;;;1.80;;
25479;SDS011;13393;49.378;8.686;2023-04-12T09:53:57;5.15;;;2.33;;
25479;SDS011;13393;49.378;8.686;2023-04-12T09:56:24;4.28;;;1.90;;
25479;SDS011;13393;49.378;8.686;2023-04-12T09:58:53;3.90;;;2.08;;
25479;SDS011;13393;49.378;8.686;2023-04-12T10:01:21;5.25;;;2.08;;
25479;SDS011;13393;49.378;8.686;2023-04-12T10:03:48;5.68;;;2.33;;
25479;SDS011;13393;49.378;8.686;2023-04-12T10:06:15;5.20;;;2.30;;
25479;SDS011;13393;49.378;8.686;2023-04-12T10:08:42;5.30;;;2.10;;
25479;SDS011;13393;49.378;8.686;2023-04-12T10:11:10;3.80;;;1.98;;
25479;SDS011;13393;49.378;8.686;2023-04-12T10:13:36;10.95;;;3.10;;
25479;SDS011;13393;49.378;8.686;2023-04-12T10:16:05;4.03;;;2.35;;
25479;SDS011;13393;49.378;8.686;2023-04-12T10:18:34;3.38;;;1.98;;
25479;SDS011;13393;49.378;8.686;2023-04-12T10:21:01;5.80;;;2.42;;
25479;SDS011;13393;49.378;8.686;2023-04-12T10:23:28;5.68;;;2.20;;
25479;SDS011;13393;49.378;8.686;2023-04-12T10:25:56;9.05;;;2.47;;
25479;SDS011;13393;49.378;8.686;2023-04-12T10:28:24;5.45;;;2.65;;
25479;SDS011;13393;49.378;8.686;2023-04-12T10:30:50;6.88;;;2.22;;
25479;SDS011;13393;49.378;8.686;2023-04-12T10:33:24;4.35;;;2.17;;
25479;SDS011;13393;49.378;8.686;2023-04-12T10:35:53;5.63;;;2.20;;
25479;SDS011;13393;49.378;8.686;2023-04-12T10:38:19;4.75;;;2.42;;
25479;SDS011;13393;49.378;8.686;2023-04-12T10:41:11;6.75;;;2.80;;
25479;SDS011;13393;49.378;8.686;2023-04-12T10:43:38;3.22;;;2.60;;
25479;SDS011;13393;49.378;8.686;2023-04-12T10:46:04;7.07;;;2.25;;
25479;SDS011;13393;49.378;8.686;2023-04-12T10:48:31;8.75;;;2.85;;
25479;SDS011;13393;49.378;8.686;2023-04-12T10:51:18;5.18;;;2.63;;
25479;SDS011;13393;49.378;8.686;2023-04-12T10:53:47;6.47;;;2.58;;
25479;SDS011;13393;49.378;8.686;2023-04-12T10:59:10;6.93;;;2.70;;
25479;SDS011;13393;49.378;8.686;2023-04-12T11:01:37;4.95;;;2.33;;
25479;SDS011;13393;49.378;8.686;2023-04-12T11:04:07;5.72;;;1.98;;
25479;SDS011;13393;49.378;8.686;2023-04-12T11:06:48;5.95;;;2.50;;
25479;SDS011;13393;49.378;8.686;2023-04-12T11:09:18;5.43;;;2.33;;
25479;SDS011;13393;49.378;8.686;2023-04-12T11:11:45;4.88;;;1.95;;
25479;SDS011;13393;49.378;8.686;2023-04-12T11:14:12;4.00;;;1.90;;
25479;SDS011;13393;49.378;8.686;2023-04-12T11:19:25;2.90;;;1.83;;
25479;SDS011;13393;49.378;8.686;2023-04-12T11:21:53;5.57;;;2.00;;
25479;SDS011;13393;49.378;8.686;2023-04-12T11:24:20;3.83;;;1.70;;
25479;SDS011;13393;49.378;8.686;2023-04-12T11:26:46;4.57;;;2.10;;
25479;SDS011;13393;49.378;8.686;2023-04-12T11:29:13;3.50;;;1.90;;
25479;SDS011;13393;49.378;8.686;2023-04-12T11:31:40;4.57;;;2.13;;
25479;SDS011;13393;49.378;8.686;2023-04-12T11:34:07;3.67;;;1.90;;
25479;SDS011;13393;49.378;8.686;2023-04-12T11:36:33;5.40;;;1.77;;
25479;SDS011;13393;49.378;8.686;2023-04-12T11:39:01;5.13;;;1.65;;
25479;SDS011;13393;49.378;8.686;2023-04-12T11:41:27;3.75;;;1.85;;
25479;SDS011;13393;49.378;8.686;2023-04-12T11:43:53;3.67;;;1.80;;
25479;SDS011;13393;49.378;8.686;2023-04-12T11:46:20;3.72;;;1.30;;
25479;SDS011;13393;49.378;8.686;2023-04-12T11:48:46;4.18;;;1.55;;
25479;SDS011;13393;49.378;8.686;2023-04-12T11:51:19;3.70;;;1.58;;
25479;SDS011;13393;49.378;8.686;2023-04-12T11:53:45;3.58;;;1.38;;
25479;SDS011;13393;49.378;8.686;2023-04-12T11:56:18;3.72;;;1.40;;
25479;SDS011;13393;49.378;8.686;2023-04-12T11:58:45;2.50;;;1.70;;
25479;SDS011;13393;49.378;8.686;2023-04-12T12:01:12;3.00;;;1.27;;
25479;SDS011;13393;49.378;8.686;2023-04-12T12:03:39;3.03;;;1.50;;
25479;SDS011;13393;49.378;8.686;2023-04-12T12:06:05;3.40;;;1.40;;
25479;SDS011;13393;49.378;8.686;2023-04-12T12:08:32;3.63;;;1.63;;
25479;SDS011;13393;49.378;8.686;2023-04-12T12:10:58;5.90;;;2.13;;
25479;SDS011;13393;49.378;8.686;2023-04-12T12:13:27;3.83;;;1.50;;
25479;SDS011;13393;49.378;8.686;2023-04-12T12:16:08;6.35;;;1.48;;
25479;SDS011;13393;49.378;8.686;2023-04-12T12:18:38;3.38;;;1.40;;
25479;SDS011;13393;49.378;8.686;2023-04-12T12:21:06;1.70;;;0.98;;
25479;SDS011;13393;49.378;8.686;2023-04-12T12:23:33;3.83;;;1.40;;
25479;SDS011;13393;49.378;8.686;2023-04-12T12:25:59;2.40;;;1.25;;
25479;SDS011;13393;49.378;8.686;2023-04-12T12:28:29;5.38;;;1.45;;
25479;SDS011;13393;49.378;8.686;2023-04-12T12:30:55;2.72;;;1.38;;
25479;SDS011;13393;49.378;8.686;2023-04-12T12:33:22;3.10;;;1.35;;
25479;SDS011;13393;49.378;8.686;2023-04-12T12:35:53;1.88;;;1.10;;
25479;SDS011;13393;49.378;8.686;2023-04-12T12:38:20;2.05;;;1.38;;
25479;SDS011;13393;49.378;8.686;2023-04-12T12:40:46;8.00;;;1.20;;
25479;SDS011;13393;49.378;8.686;2023-04-12T12:43:16;3.65;;;1.20;;
25479;SDS011;13393;49.378;8.686;2023-04-12T12:45:43;0.90;;;0.90;;
25479;SDS011;13393;49.378;8.686;2023-04-12T12:48:10;1.50;;;0.90;;
25479;SDS011;13393;49.378;8.686;2023-04-12T12:50:37;2.35;;;1.38;;
25479;SDS011;13393;49.378;8.686;2023-04-12T12:53:03;4.03;;;1.17;;
25479;SDS011;13393;49.378;8.686;2023-04-12T12:55:31;2.03;;;1.30;;
25479;SDS011;13393;49.378;8.686;2023-04-12T12:57:57;4.40;;;1.30;;
25479;SDS011;13393;49.378;8.686;2023-04-12T13:00:24;3.95;;;1.42;;
25479;SDS011;13393;49.378;8.686;2023-04-12T13:02:52;2.38;;;1.20;;
25479;SDS011;13393;49.378;8.686;2023-04-12T13:05:19;4.72;;;1.50;;
25479;SDS011;13393;49.378;8.686;2023-04-12T13:07:46;2.83;;;1.40;;
25479;SDS011;13393;49.378;8.686;2023-04-12T13:10:12;3.88;;;1.40;;
25479;SDS011;13393;49.378;8.686;2023-04-12T13:12:39;2.15;;;1.60;;
25479;SDS011;13393;49.378;8.686;2023-04-12T13:15:06;3.38;;;1.33;;
25479;SDS011;13393;49.378;8.686;2023-04-12T13:17:32;3.28;;;1.30;;
25479;SDS011;13393;49.378;8.686;2023-04-12T13:20:00;5.20;;;2.38;;
25479;SDS011;13393;49.378;8.686;2023-04-12T13:22:28;2.75;;;1.45;;
25479;SDS011;13393;49.378;8.686;2023-04-12T13:24:54;1.27;;;1.23;;
25479;SDS011;13393;49.378;8.686;2023-04-12T13:27:21;2.03;;;1.30;;
25479;SDS011;13393;49.378;8.686;2023-04-12T13:29:47;3.97;;;1.75;;
25479;SDS011;13393;49.378;8.686;2023-04-12T13:32:14;1.95;;;1.38;;
25479;SDS011;13393;49.378;8.686;2023-04-12T13:34:41;2.88;;;1.40;;
25479;SDS011;13393;49.378;8.686;2023-04-12T13:37:09;1.83;;;1.33;;
25479;SDS011;13393;49.378;8.686;2023-04-12T13:39:36;1.90;;;1.27;;
25479;SDS011;13393;49.378;8.686;2023-04-12T13:42:04;1.83;;;1.35;;
25479;SDS011;13393;49.378;8.686;2023-04-12T13:44:31;2.35;;;1.35;;
25479;SDS011;13393;49.378;8.686;2023-04-12T13:46:57;1.98;;;1.40;;
25479;SDS011;13393;49.378;8.686;2023-04-12T13:49:23;3.38;;;1.35;;
25479;SDS011;13393;49.378;8.686;2023-04-12T13:51:50;2.30;;;1.13;;
25479;SDS011;13393;49.378;8.686;2023-04-12T13:54:17;5.68;;;1.73;;
25479;SDS011;13393;49.378;8.686;2023-04-12T13:56:45;3.65;;;1.50;;
25479;SDS011;13393;49.378;8.686;2023-04-12T13:59:11;3.00;;;1.50;;
25479;SDS011;13393;49.378;8.686;2023-04-12T14:01:38;3.67;;;1.50;;
25479;SDS011;13393;49.378;8.686;2023-04-12T14:04:04;2.20;;;1.50;;
25479;SDS011;13393;49.378;8.686;2023-04-12T14:06:31;4.30;;;1.58;;
25479;SDS011;13393;49.378;8.686;2023-04-12T14:08:57;3.78;;;1.83;;
25479;SDS011;13393;49.378;8.686;2023-04-12T14:11:25;4.18;;;1.92;;
25479;SDS011;13393;49.378;8.686;2023-04-12T14:13:52;2.80;;;1.45;;
25479;SDS011;13393;49.378;8.686;2023-04-12T14:16:18;4.38;;;1.80;;
25479;SDS011;13393;49.378;8.686;2023-04-12T14:18:45;5.80;;;2.20;;
25479;SDS011;13393;49.378;8.686;2023-04-12T14:21:11;4.30;;;1.88;;
25479;SDS011;13393;49.378;8.686;2023-04-12T14:23:37;5.32;;;1.83;;
25479;SDS011;13393;49.378;8.686;2023-04-12T14:26:05;1.67;;;1.30;;
25479;SDS011;13393;49.378;8.686;2023-04-12T14:28:33;2.17;;;1.65;;
25479;SDS011;13393;49.378;8.686;2023-04-12T14:30:59;4.10;;;2.00;;
25479;SDS011;13393;49.378;8.686;2023-04-12T14:33:26;4.53;;;1.80;;
25479;SDS011;13393;49.378;8.686;2023-04-12T14:35:53;2.78;;;1.80;;
25479;SDS011;13393;49.378;8.686;2023-04-12T14:38:20;3.35;;;1.50;;
25479;SDS011;13393;49.378;8.686;2023-04-12T14:40:47;2.28;;;1.48;;
25479;SDS011;13393;49.378;8.686;2023-04-12T14:43:14;4.95;;;2.75;;
25479;SDS011;13393;49.378;8.686;2023-04-12T14:45:42;5.57;;;1.70;;
25479;SDS011;13393;49.378;8.686;2023-04-12T14:48:08;1.90;;;1.33;;
25479;SDS011;13393;49.378;8.686;2023-04-12T14:50:35;3.58;;;1.85;;
25479;SDS011;13393;49.378;8.686;2023-04-12T14:53:01;5.47;;;2.17;;
25479;SDS011;13393;49.378;8.686;2023-04-12T14:55:28;2.55;;;2.00;;